sensor_id;sensor_type;location;lat;lon;timestamp;temperature;humidity
31046;DHT22;17711;54.018;9.300;2023-02-23T00:00:18;8.70;99.90
31046;DHT22;17711;54.018;9.300;2023-02-23T00:03:12;8.70;99.90
31046;DHT22;17711;54.018;9.300;2023-02-23T00:06:03;8.70;99.90
31046;DHT22;17711;54.018;9.300;2023-02-23T00:08:51;8.70;99.90
31046;DHT22;17711;54.018;9.300;2023-02-23T00:11:38;8.70;99.90
31046;DHT22;17711;54.018;9.300;2023-02-23T00:14:27;8.70;99.90
31046;DHT22;17711;54.018;9.300;2023-02-23T00:17:17;8.70;99.90
31046;DHT22;17711;54.018;9.300;2023-02-23T00:20:07;8.70;99.90
31046;DHT22;17711;54.018;9.300;2023-02-23T00:22:57;8.70;99.90
31046;DHT22;17711;54.018;9.300;2023-02-23T00:25:44;8.70;99.90
31046;DHT22;17711;54.018;9.300;2023-02-23T00:28:32;8.70;99.90
31046;DHT22;17711;54.018;9.300;2023-02-23T00:31:21;8.70;99.90
31046;DHT22;17711;54.018;9.300;2023-02-23T00:34:12;8.70;99.90
31046;DHT22;17711;54.018;9.300;2023-02-23T00:36:59;8.70;99.90
31046;DHT22;17711;54.018;9.300;2023-02-23T00:39:48;8.60;99.90
31046;DHT22;17711;54.018;9.300;2023-02-23T00:42:36;8.60;99.90
31046;DHT22;17711;54.018;9.300;2023-02-23T00:45:24;8.60;99.90
31046;DHT22;17711;54.018;9.300;2023-02-23T00:48:12;8.50;99.90
31046;DHT22;17711;54.018;9.300;2023-02-23T00:51:04;8.60;99.90
31046;DHT22;17711;54.018;9.300;2023-02-23T00:53:53;8.60;99.90
31046;DHT22;17711;54.018;9.300;2023-02-23T00:56:42;8.60;99.90
31046;DHT22;17711;54.018;9.300;2023-02-23T00:59:29;8.60;99.90
31046;DHT22;17711;54.018;9.300;2023-02-23T01:02:17;8.60;99.90
31046;DHT22;17711;54.018;9.300;2023-02-23T01:05:04;8.60;99.90
31046;DHT22;17711;54.018;9.300;2023-02-23T01:07:51;8.60;99.90
31046;DHT22;17711;54.018;9.300;2023-02-23T01:10:39;8.60;99.90
31046;DHT22;17711;54.018;9.300;2023-02-23T01:13:29;8.60;99.90
31046;DHT22;17711;54.018;9.300;2023-02-23T01:16:19;8.60;99.90
31046;DHT22;17711;54.018;9.300;2023-02-23T01:19:08;8.60;99.90
31046;DHT22;17711;54.018;9.300;2023-02-23T01:21:56;8.50;99.90
31046;DHT22;17711;54.018;9.300;2023-02-23T01:24:43;8.60;99.90
31046;DHT22;17711;54.018;9.300;2023-02-23T01:27:31;8.50;99.90
31046;DHT22;17711;54.018;9.300;2023-02-23T01:30:21;8.50;99.90
31046;DHT22;17711;54.018;9.300;2023-02-23T01:33:09;8.50;99.90
31046;DHT22;17711;54.018;9.300;2023-02-23T01:35:57;8.60;99.90
31046;DHT22;17711;54.018;9.300;2023-02-23T01:38:45;8.60;99.90
31046;DHT22;17711;54.018;9.300;2023-02-23T01:41:35;8.60;99.90
31046;DHT22;17711;54.018;9.300;2023-02-23T01:47:48;8.70;99.90
31046;DHT22;17711;54.018;9.300;2023-02-23T01:50:44;8.70;99.90
31046;DHT22;17711;54.018;9.300;2023-02-23T01:53:36;8.80;99.90
31046;DHT22;17711;54.018;9.300;2023-02-23T01:56:28;8.80;99.90
31046;DHT22;17711;54.018;9.300;2023-02-23T01:59:17;8.90;99.90
31046;DHT22;17711;54.018;9.300;2023-02-23T02:02:05;8.90;99.90
31046;DHT22;17711;54.018;9.300;2023-02-23T02:04:53;8.90;99.90
31046;DHT22;17711;54.018;9.300;2023-02-23T02:07:45;8.80;99.90
31046;DHT22;17711;54.018;9.300;2023-02-23T02:10:33;8.80;99.90
31046;DHT22;17711;54.018;9.300;2023-02-23T02:13:31;8.70;99.90
31046;DHT22;17711;54.018;9.300;2023-02-23T02:16:34;8.70;99.90
31046;DHT22;17711;54.018;9.300;2023-02-23T02:23:38;8.60;99.90
31046;DHT22;17711;54.018;9.300;2023-02-23T02:26:34;8.70;99.90
31046;DHT22;17711;54.018;9.300;2023-02-23T02:36:56;8.60;99.90
31046;DHT22;17711;54.018;9.300;2023-02-23T02:39:48;8.60;99.90
31046;DHT22;17711;54.018;9.300;2023-02-23T02:46:00;8.60;99.90
31046;DHT22;17711;54.018;9.300;2023-02-23T02:48:57;8.70;99.90
31046;DHT22;17711;54.018;9.300;2023-02-23T02:51:54;8.70;99.90
31046;DHT22;17711;54.018;9.300;2023-02-23T02:54:46;8.70;99.90
31046;DHT22;17711;54.018;9.300;2023-02-23T02:57:38;8.70;99.90
31046;DHT22;17711;54.018;9.300;2023-02-23T03:00:30;8.70;99.90
31046;DHT22;17711;54.018;9.300;2023-02-23T03:03:39;8.70;99.90
31046;DHT22;17711;54.018;9.300;2023-02-23T03:06:46;8.80;99.90
31046;DHT22;17711;54.018;9.300;2023-02-23T03:09:54;8.80;99.90
31046;DHT22;17711;54.018;9.300;2023-02-23T03:13:09;8.80;99.90
31046;DHT22;17711;54.018;9.300;2023-02-23T03:16:22;8.80;99.90
31046;DHT22;17711;54.018;9.300;2023-02-23T03:19:36;8.80;99.90
31046;DHT22;17711;54.018;9.300;2023-02-23T03:22:49;8.90;99.90
31046;DHT22;17711;54.018;9.300;2023-02-23T03:26:03;8.90;99.90
31046;DHT22;17711;54.018;9.300;2023-02-23T03:29:13;9.00;99.90
31046;DHT22;17711;54.018;9.300;2023-02-23T03:32:24;9.00;99.90
31046;DHT22;17711;54.018;9.300;2023-02-23T03:35:34;9.00;99.90
31046;DHT22;17711;54.018;9.300;2023-02-23T03:38:46;9.10;99.90
31046;DHT22;17711;54.018;9.300;2023-02-23T03:41:55;9.10;99.90
31046;DHT22;17711;54.018;9.300;2023-02-23T03:45:05;9.10;99.90
31046;DHT22;17711;54.018;9.300;2023-02-23T03:48:12;9.10;99.90
31046;DHT22;17711;54.018;9.300;2023-02-23T03:51:19;9.10;99.90
31046;DHT22;17711;54.018;9.300;2023-02-23T03:54:30;9.10;99.90
31046;DHT22;17711;54.018;9.300;2023-02-23T03:57:38;9.10;99.90
31046;DHT22;17711;54.018;9.300;2023-02-23T04:00:47;9.10;99.90
31046;DHT22;17711;54.018;9.300;2023-02-23T04:03:54;9.00;99.90
31046;DHT22;17711;54.018;9.300;2023-02-23T04:07:02;9.00;99.90
31046;DHT22;17711;54.018;9.300;2023-02-23T04:10:08;9.00;99.90
31046;DHT22;17711;54.018;9.300;2023-02-23T04:13:19;9.00;99.90
31046;DHT22;17711;54.018;9.300;2023-02-23T04:16:07;9.00;99.90
31046;DHT22;17711;54.018;9.300;2023-02-23T04:18:54;9.10;99.90
31046;DHT22;17711;54.018;9.300;2023-02-23T04:21:41;9.10;99.90
31046;DHT22;17711;54.018;9.300;2023-02-23T04:24:28;9.10;99.90
31046;DHT22;17711;54.018;9.300;2023-02-23T04:27:16;9.10;99.90
31046;DHT22;17711;54.018;9.300;2023-02-23T04:30:06;9.10;99.90
31046;DHT22;17711;54.018;9.300;2023-02-23T04:32:56;9.00;99.90
31046;DHT22;17711;54.018;9.300;2023-02-23T04:35:44;9.00;99.90
31046;DHT22;17711;54.018;9.300;2023-02-23T04:38:31;9.00;99.90
31046;DHT22;17711;54.018;9.300;2023-02-23T04:41:18;9.00;99.90
31046;DHT22;17711;54.018;9.300;2023-02-23T04:44:05;9.00;99.90
31046;DHT22;17711;54.018;9.300;2023-02-23T04:46:55;9.00;99.90
31046;DHT22;17711;54.018;9.300;2023-02-23T04:49:43;9.00;99.90
31046;DHT22;17711;54.018;9.300;2023-02-23T04:52:31;9.00;99.90
31046;DHT22;17711;54.018;9.300;2023-02-23T04:55:22;9.00;99.90
31046;DHT22;17711;54.018;9.300;2023-02-23T04:58:10;9.00;99.90
31046;DHT22;17711;54.018;9.300;2023-02-23T05:01:03;9.00;99.90
31046;DHT22;17711;54.018;9.300;2023-02-23T05:03:52;9.00;99.90
31046;DHT22;17711;54.018;9.300;2023-02-23T05:06:40;8.90;99.90
31046;DHT22;17711;54.018;9.300;2023-02-23T05:09:28;8.90;99.90
31046;DHT22;17711;54.018;9.300;2023-02-23T05:12:15;8.90;99.90
31046;DHT22;17711;54.018;9.300;2023-02-23T05:15:02;8.90;99.90
31046;DHT22;17711;54.018;9.300;2023-02-23T05:17:49;8.90;99.90
31046;DHT22;17711;54.018;9.300;2023-02-23T05:20:40;8.90;99.90
31046;DHT22;17711;54.018;9.300;2023-02-23T05:23:28;8.80;99.90
31046;DHT22;17711;54.018;9.300;2023-02-23T05:26:16;8.80;99.90
31046;DHT22;17711;54.018;9.300;2023-02-23T05:29:03;8.90;99.90
31046;DHT22;17711;54.018;9.300;2023-02-23T05:31:51;8.80;99.90
31046;DHT22;17711;54.018;9.300;2023-02-23T05:34:38;8.80;99.90
31046;DHT22;17711;54.018;9.300;2023-02-23T05:37:28;8.80;99.90
31046;DHT22;17711;54.018;9.300;2023-02-23T05:40:15;8.80;99.90
31046;DHT22;17711;54.018;9.300;2023-02-23T05:43:02;8.80;99.90
31046;DHT22;17711;54.018;9.300;2023-02-23T05:45:49;8.80;99.90
31046;DHT22;17711;54.018;9.300;2023-02-23T05:48:37;8.80;99.90
31046;DHT22;17711;54.018;9.300;2023-02-23T05:51:24;8.90;99.90
31046;DHT22;17711;54.018;9.300;2023-02-23T05:54:13;8.80;99.90
31046;DHT22;17711;54.018;9.300;2023-02-23T05:57:00;8.80;99.90
31046;DHT22;17711;54.018;9.300;2023-02-23T05:59:47;8.80;99.90
31046;DHT22;17711;54.018;9.300;2023-02-23T06:02:35;8.80;99.90
31046;DHT22;17711;54.018;9.300;2023-02-23T06:05:23;8.80;99.90
31046;DHT22;17711;54.018;9.300;2023-02-23T06:08:10;8.70;99.90
31046;DHT22;17711;54.018;9.300;2023-02-23T06:10:58;8.70;99.90
31046;DHT22;17711;54.018;9.300;2023-02-23T06:13:46;8.70;99.90
31046;DHT22;17711;54.018;9.300;2023-02-23T06:16:33;8.70;99.90
31046;DHT22;17711;54.018;9.300;2023-02-23T06:19:20;8.70;99.90
31046;DHT22;17711;54.018;9.300;2023-02-23T06:22:08;8.70;99.90
31046;DHT22;17711;54.018;9.300;2023-02-23T06:24:55;8.60;99.90
31046;DHT22;17711;54.018;9.300;2023-02-23T06:27:44;8.60;99.90
31046;DHT22;17711;54.018;9.300;2023-02-23T06:30:31;8.60;99.90
31046;DHT22;17711;54.018;9.300;2023-02-23T06:33:18;8.60;99.90
31046;DHT22;17711;54.018;9.300;2023-02-23T06:36:06;8.50;99.90
31046;DHT22;17711;54.018;9.300;2023-02-23T06:38:55;8.50;99.90
31046;DHT22;17711;54.018;9.300;2023-02-23T06:41:43;8.60;99.90
31046;DHT22;17711;54.018;9.300;2023-02-23T06:44:32;8.60;99.90
31046;DHT22;17711;54.018;9.300;2023-02-23T06:47:20;8.60;99.90
31046;DHT22;17711;54.018;9.300;2023-02-23T06:50:09;8.60;99.90
31046;DHT22;17711;54.018;9.300;2023-02-23T06:52:56;8.60;99.90
31046;DHT22;17711;54.018;9.300;2023-02-23T06:55:44;8.60;99.90
31046;DHT22;17711;54.018;9.300;2023-02-23T06:58:31;8.60;99.90
31046;DHT22;17711;54.018;9.300;2023-02-23T07:01:20;8.50;99.90
31046;DHT22;17711;54.018;9.300;2023-02-23T07:04:07;8.50;99.90
31046;DHT22;17711;54.018;9.300;2023-02-23T07:06:54;8.50;99.90
31046;DHT22;17711;54.018;9.300;2023-02-23T07:09:41;8.60;99.90
31046;DHT22;17711;54.018;9.300;2023-02-23T07:12:29;8.60;99.90
31046;DHT22;17711;54.018;9.300;2023-02-23T07:15:16;8.60;99.90
31046;DHT22;17711;54.018;9.300;2023-02-23T07:18:06;8.60;99.90
31046;DHT22;17711;54.018;9.300;2023-02-23T07:20:54;8.50;99.90
31046;DHT22;17711;54.018;9.300;2023-02-23T07:23:41;8.60;99.90
31046;DHT22;17711;54.018;9.300;2023-02-23T07:26:29;8.60;99.90
31046;DHT22;17711;54.018;9.300;2023-02-23T07:29:17;8.50;99.90
31046;DHT22;17711;54.018;9.300;2023-02-23T07:32:04;8.60;99.90
31046;DHT22;17711;54.018;9.300;2023-02-23T07:34:53;8.60;99.90
31046;DHT22;17711;54.018;9.300;2023-02-23T07:37:40;8.60;99.90
31046;DHT22;17711;54.018;9.300;2023-02-23T07:40:28;8.60;99.90
31046;DHT22;17711;54.018;9.300;2023-02-23T07:43:16;8.60;99.90
31046;DHT22;17711;54.018;9.300;2023-02-23T07:46:05;8.70;99.90
31046;DHT22;17711;54.018;9.300;2023-02-23T07:48:53;8.70;99.90
31046;DHT22;17711;54.018;9.300;2023-02-23T07:51:42;8.70;99.90
31046;DHT22;17711;54.018;9.300;2023-02-23T07:54:30;8.70;99.90
31046;DHT22;17711;54.018;9.300;2023-02-23T07:57:18;8.70;99.90
31046;DHT22;17711;54.018;9.300;2023-02-23T08:00:08;8.70;99.90
31046;DHT22;17711;54.018;9.300;2023-02-23T08:02:55;8.80;99.90
31046;DHT22;17711;54.018;9.300;2023-02-23T08:05:43;8.80;99.90
31046;DHT22;17711;54.018;9.300;2023-02-23T08:08:31;8.80;99.90
31046;DHT22;17711;54.018;9.300;2023-02-23T08:11:19;8.80;99.90
31046;DHT22;17711;54.018;9.300;2023-02-23T08:14:07;8.80;99.90
31046;DHT22;17711;54.018;9.300;2023-02-23T08:16:55;8.70;99.90
31046;DHT22;17711;54.018;9.300;2023-02-23T08:19:42;8.70;99.90
31046;DHT22;17711;54.018;9.300;2023-02-23T08:22:30;8.70;99.90
31046;DHT22;17711;54.018;9.300;2023-02-23T08:25:35;8.70;99.90
31046;DHT22;17711;54.018;9.300;2023-02-23T08:28:22;8.80;99.90
31046;DHT22;17711;54.018;9.300;2023-02-23T08:31:09;8.80;99.90
31046;DHT22;17711;54.018;9.300;2023-02-23T08:33:57;8.90;99.90
31046;DHT22;17711;54.018;9.300;2023-02-23T08:36:45;8.90;99.90
31046;DHT22;17711;54.018;9.300;2023-02-23T08:39:33;8.90;99.90
31046;DHT22;17711;54.018;9.300;2023-02-23T08:42:21;8.90;99.90
31046;DHT22;17711;54.018;9.300;2023-02-23T08:45:10;8.90;99.90
31046;DHT22;17711;54.018;9.300;2023-02-23T08:47:57;8.90;99.90
31046;DHT22;17711;54.018;9.300;2023-02-23T08:50:45;8.80;99.90
31046;DHT22;17711;54.018;9.300;2023-02-23T08:53:35;8.80;99.90
31046;DHT22;17711;54.018;9.300;2023-02-23T08:56:22;8.80;99.90
31046;DHT22;17711;54.018;9.300;2023-02-23T08:59:13;8.80;99.90
31046;DHT22;17711;54.018;9.300;2023-02-23T09:02:00;8.80;99.90
31046;DHT22;17711;54.018;9.300;2023-02-23T09:04:48;8.90;99.90
31046;DHT22;17711;54.018;9.300;2023-02-23T09:07:39;9.00;99.90
31046;DHT22;17711;54.018;9.300;2023-02-23T09:10:30;9.10;99.90
31046;DHT22;17711;54.018;9.300;2023-02-23T09:13:18;9.20;99.90
31046;DHT22;17711;54.018;9.300;2023-02-23T09:16:07;9.40;99.90
31046;DHT22;17711;54.018;9.300;2023-02-23T09:18:55;9.40;99.90
31046;DHT22;17711;54.018;9.300;2023-02-23T09:21:44;9.40;99.90
31046;DHT22;17711;54.018;9.300;2023-02-23T09:24:32;9.40;99.90
31046;DHT22;17711;54.018;9.300;2023-02-23T09:27:19;9.40;99.90
31046;DHT22;17711;54.018;9.300;2023-02-23T09:30:08;9.40;99.90
31046;DHT22;17711;54.018;9.300;2023-02-23T09:32:59;9.50;99.90
31046;DHT22;17711;54.018;9.300;2023-02-23T09:35:46;9.50;99.90
31046;DHT22;17711;54.018;9.300;2023-02-23T09:38:33;9.60;99.90
31046;DHT22;17711;54.018;9.300;2023-02-23T09:41:49;9.70;99.90
31046;DHT22;17711;54.018;9.300;2023-02-23T09:44:56;9.90;99.90
31046;DHT22;17711;54.018;9.300;2023-02-23T09:48:06;10.00;99.90
31046;DHT22;17711;54.018;9.300;2023-02-23T09:50:56;10.10;99.90
31046;DHT22;17711;54.018;9.300;2023-02-23T09:53:48;10.10;99.90
31046;DHT22;17711;54.018;9.300;2023-02-23T09:56:39;10.20;99.90
31046;DHT22;17711;54.018;9.300;2023-02-23T09:59:34;10.20;99.90
31046;DHT22;17711;54.018;9.300;2023-02-23T10:02:30;10.30;99.90
31046;DHT22;17711;54.018;9.300;2023-02-23T10:05:23;10.40;99.90
31046;DHT22;17711;54.018;9.300;2023-02-23T10:08:27;10.50;99.90
31046;DHT22;17711;54.018;9.300;2023-02-23T10:11:23;10.60;99.90
31046;DHT22;17711;54.018;9.300;2023-02-23T10:14:23;10.70;99.90
31046;DHT22;17711;54.018;9.300;2023-02-23T10:17:22;10.80;99.90
31046;DHT22;17711;54.018;9.300;2023-02-23T10:20:23;11.00;99.90
31046;DHT22;17711;54.018;9.300;2023-02-23T10:23:14;11.20;99.90
31046;DHT22;17711;54.018;9.300;2023-02-23T10:26:04;11.20;99.90
31046;DHT22;17711;54.018;9.300;2023-02-23T10:28:54;11.00;99.90
31046;DHT22;17711;54.018;9.300;2023-02-23T10:31:46;11.20;99.90
31046;DHT22;17711;54.018;9.300;2023-02-23T10:34:35;11.30;99.90
31046;DHT22;17711;54.018;9.300;2023-02-23T10:37:25;11.10;99.90
31046;DHT22;17711;54.018;9.300;2023-02-23T10:40:14;11.10;99.90
31046;DHT22;17711;54.018;9.300;2023-02-23T10:43:02;10.90;99.90
31046;DHT22;17711;54.018;9.300;2023-02-23T10:45:51;10.80;99.90
31046;DHT22;17711;54.018;9.300;2023-02-23T10:48:40;10.80;99.90
31046;DHT22;17711;54.018;9.300;2023-02-23T10:51:32;10.80;99.90
31046;DHT22;17711;54.018;9.300;2023-02-23T10:54:36;10.70;99.90
31046;DHT22;17711;54.018;9.300;2023-02-23T10:57:25;10.60;99.90
31046;DHT22;17711;54.018;9.300;2023-02-23T11:00:27;10.60;99.90
31046;DHT22;17711;54.018;9.300;2023-02-23T11:03:24;10.50;99.90
31046;DHT22;17711;54.018;9.300;2023-02-23T11:06:29;10.80;99.90
31046;DHT22;17711;54.018;9.300;2023-02-23T11:09:23;10.90;99.90
31046;DHT22;17711;54.018;9.300;2023-02-23T11:12:36;11.10;99.90
31046;DHT22;17711;54.018;9.300;2023-02-23T11:15:28;12.00;99.90
31046;DHT22;17711;54.018;9.300;2023-02-23T11:18:35;12.70;99.90
31046;DHT22;17711;54.018;9.300;2023-02-23T11:21:26;12.50;99.90
31046;DHT22;17711;54.018;9.300;2023-02-23T11:24:18;12.10;99.90
31046;DHT22;17711;54.018;9.300;2023-02-23T11:27:06;11.80;99.90
31046;DHT22;17711;54.018;9.300;2023-02-23T11:30:09;11.60;99.90
31046;DHT22;17711;54.018;9.300;2023-02-23T11:33:02;11.50;99.90
31046;DHT22;17711;54.018;9.300;2023-02-23T11:35:57;11.30;99.90
31046;DHT22;17711;54.018;9.300;2023-02-23T11:38:45;11.20;99.90
31046;DHT22;17711;54.018;9.300;2023-02-23T11:41:34;11.20;99.90
31046;DHT22;17711;54.018;9.300;2023-02-23T11:44:23;11.30;99.90
31046;DHT22;17711;54.018;9.300;2023-02-23T11:47:16;11.30;99.90
31046;DHT22;17711;54.018;9.300;2023-02-23T11:50:07;11.30;99.90
31046;DHT22;17711;54.018;9.300;2023-02-23T11:53:12;11.20;99.90
31046;DHT22;17711;54.018;9.300;2023-02-23T11:56:03;11.10;99.90
31046;DHT22;17711;54.018;9.300;2023-02-23T11:58:58;11.00;99.90
31046;DHT22;17711;54.018;9.300;2023-02-23T12:01:49;10.80;99.90
31046;DHT22;17711;54.018;9.300;2023-02-23T12:04:39;10.60;99.90
31046;DHT22;17711;54.018;9.300;2023-02-23T12:07:37;10.50;99.90
31046;DHT22;17711;54.018;9.300;2023-02-23T12:10:30;10.50;99.90
31046;DHT22;17711;54.018;9.300;2023-02-23T12:13:25;10.70;99.90
31046;DHT22;17711;54.018;9.300;2023-02-23T12:16:16;10.70;99.90
31046;DHT22;17711;54.018;9.300;2023-02-23T12:19:10;10.80;99.90
31046;DHT22;17711;54.018;9.300;2023-02-23T12:22:05;10.90;99.90
31046;DHT22;17711;54.018;9.300;2023-02-23T12:24:57;10.90;99.90
31046;DHT22;17711;54.018;9.300;2023-02-23T12:27:49;10.90;99.90
31046;DHT22;17711;54.018;9.300;2023-02-23T12:30:42;10.90;99.90
31046;DHT22;17711;54.018;9.300;2023-02-23T12:33:34;10.70;99.90
31046;DHT22;17711;54.018;9.300;2023-02-23T12:36:26;10.60;99.90
31046;DHT22;17711;54.018;9.300;2023-02-23T12:39:23;10.60;99.90
31046;DHT22;17711;54.018;9.300;2023-02-23T12:42:15;10.50;99.90
31046;DHT22;17711;54.018;9.300;2023-02-23T12:45:09;10.40;99.90
31046;DHT22;17711;54.018;9.300;2023-02-23T12:48:05;10.40;99.90
31046;DHT22;17711;54.018;9.300;2023-02-23T12:50:55;10.40;99.90
31046;DHT22;17711;54.018;9.300;2023-02-23T12:53:44;10.50;99.90
31046;DHT22;17711;54.018;9.300;2023-02-23T12:56:42;10.70;99.90
31046;DHT22;17711;54.018;9.300;2023-02-23T12:59:49;10.70;99.90
31046;DHT22;17711;54.018;9.300;2023-02-23T13:02:44;10.60;99.90
31046;DHT22;17711;54.018;9.300;2023-02-23T13:05:34;10.60;99.90
31046;DHT22;17711;54.018;9.300;2023-02-23T13:08:36;10.50;99.90
31046;DHT22;17711;54.018;9.300;2023-02-23T13:11:52;10.50;99.90
31046;DHT22;17711;54.018;9.300;2023-02-23T13:14:46;10.50;99.90
31046;DHT22;17711;54.018;9.300;2023-02-23T13:17:39;10.50;99.90
31046;DHT22;17711;54.018;9.300;2023-02-23T13:20:32;10.50;99.90
31046;DHT22;17711;54.018;9.300;2023-02-23T13:23:26;10.50;99.90
31046;DHT22;17711;54.018;9.300;2023-02-23T13:26:21;10.50;99.90
31046;DHT22;17711;54.018;9.300;2023-02-23T13:29:26;10.50;99.90
31046;DHT22;17711;54.018;9.300;2023-02-23T13:32:20;10.40;99.90
31046;DHT22;17711;54.018;9.300;2023-02-23T13:35:13;10.40;99.90
31046;DHT22;17711;54.018;9.300;2023-02-23T13:38:08;10.30;99.90
31046;DHT22;17711;54.018;9.300;2023-02-23T13:41:05;10.20;99.90
31046;DHT22;17711;54.018;9.300;2023-02-23T13:43:58;10.20;99.90
31046;DHT22;17711;54.018;9.300;2023-02-23T13:46:54;10.10;99.90
31046;DHT22;17711;54.018;9.300;2023-02-23T13:49:49;10.10;99.90
31046;DHT22;17711;54.018;9.300;2023-02-23T13:52:40;10.20;99.90
31046;DHT22;17711;54.018;9.300;2023-02-23T13:55:34;10.20;99.90
31046;DHT22;17711;54.018;9.300;2023-02-23T13:58:34;10.10;99.90
31046;DHT22;17711;54.018;9.300;2023-02-23T14:01:26;10.20;99.90
31046;DHT22;17711;54.018;9.300;2023-02-23T14:04:22;10.10;99.90
31046;DHT22;17711;54.018;9.300;2023-02-23T14:07:17;10.00;99.90
31046;DHT22;17711;54.018;9.300;2023-02-23T14:10:08;9.90;99.90
31046;DHT22;17711;54.018;9.300;2023-02-23T14:13:09;9.80;99.90
31046;DHT22;17711;54.018;9.300;2023-02-23T14:16:12;9.80;99.90
31046;DHT22;17711;54.018;9.300;2023-02-23T14:19:10;9.70;99.90
31046;DHT22;17711;54.018;9.300;2023-02-23T14:22:01;9.70;99.90
31046;DHT22;17711;54.018;9.300;2023-02-23T14:28:22;9.60;99.90
31046;DHT22;17711;54.018;9.300;2023-02-23T14:31:18;9.50;99.90
31046;DHT22;17711;54.018;9.300;2023-02-23T14:34:08;9.50;99.90
31046;DHT22;17711;54.018;9.300;2023-02-23T14:37:11;9.40;99.90
31046;DHT22;17711;54.018;9.300;2023-02-23T14:40:05;9.40;99.90
31046;DHT22;17711;54.018;9.300;2023-02-23T14:42:57;9.30;99.90
31046;DHT22;17711;54.018;9.300;2023-02-23T14:45:46;9.20;99.90
31046;DHT22;17711;54.018;9.300;2023-02-23T14:48:34;9.20;99.90
31046;DHT22;17711;54.018;9.300;2023-02-23T14:51:33;9.10;99.90
31046;DHT22;17711;54.018;9.300;2023-02-23T14:54:32;9.00;99.90
31046;DHT22;17711;54.018;9.300;2023-02-23T14:57:21;9.00;99.90
31046;DHT22;17711;54.018;9.300;2023-02-23T15:00:17;9.00;99.90
31046;DHT22;17711;54.018;9.300;2023-02-23T15:03:09;9.00;99.90
31046;DHT22;17711;54.018;9.300;2023-02-23T15:05:59;9.00;99.90
31046;DHT22;17711;54.018;9.300;2023-02-23T15:08:47;8.90;99.90
31046;DHT22;17711;54.018;9.300;2023-02-23T15:11:35;8.90;99.90
31046;DHT22;17711;54.018;9.300;2023-02-23T15:14:23;8.80;99.90
31046;DHT22;17711;54.018;9.300;2023-02-23T15:17:16;8.90;99.90
31046;DHT22;17711;54.018;9.300;2023-02-23T15:20:06;8.90;99.90
31046;DHT22;17711;54.018;9.300;2023-02-23T15:23:02;8.90;99.90
31046;DHT22;17711;54.018;9.300;2023-02-23T15:25:50;8.90;99.90
31046;DHT22;17711;54.018;9.300;2023-02-23T15:28:39;8.80;99.90
31046;DHT22;17711;54.018;9.300;2023-02-23T15:31:29;8.80;99.90
31046;DHT22;17711;54.018;9.300;2023-02-23T15:34:17;8.80;99.90
31046;DHT22;17711;54.018;9.300;2023-02-23T15:37:11;8.70;99.90
31046;DHT22;17711;54.018;9.300;2023-02-23T15:40:01;8.70;99.90
31046;DHT22;17711;54.018;9.300;2023-02-23T15:42:53;8.70;99.90
31046;DHT22;17711;54.018;9.300;2023-02-23T15:45:44;8.70;99.90
31046;DHT22;17711;54.018;9.300;2023-02-23T15:48:40;8.70;99.90
31046;DHT22;17711;54.018;9.300;2023-02-23T15:51:34;8.60;99.90
31046;DHT22;17711;54.018;9.300;2023-02-23T15:54:26;8.60;99.90
31046;DHT22;17711;54.018;9.300;2023-02-23T15:57:18;8.60;99.90
31046;DHT22;17711;54.018;9.300;2023-02-23T16:00:16;8.50;99.90
31046;DHT22;17711;54.018;9.300;2023-02-23T16:03:18;8.50;99.90
31046;DHT22;17711;54.018;9.300;2023-02-23T16:06:21;8.40;99.90
31046;DHT22;17711;54.018;9.300;2023-02-23T16:09:14;8.40;99.90
31046;DHT22;17711;54.018;9.300;2023-02-23T16:12:11;8.40;99.90
31046;DHT22;17711;54.018;9.300;2023-02-23T16:15:01;8.30;99.90
31046;DHT22;17711;54.018;9.300;2023-02-23T16:17:53;8.30;99.90
31046;DHT22;17711;54.018;9.300;2023-02-23T16:20:48;8.20;99.90
31046;DHT22;17711;54.018;9.300;2023-02-23T16:23:42;8.20;99.90
31046;DHT22;17711;54.018;9.300;2023-02-23T16:26:34;8.20;99.90
31046;DHT22;17711;54.018;9.300;2023-02-23T16:29:29;8.20;99.90
31046;DHT22;17711;54.018;9.300;2023-02-23T16:32:19;8.10;99.90
31046;DHT22;17711;54.018;9.300;2023-02-23T16:35:14;8.10;99.90
31046;DHT22;17711;54.018;9.300;2023-02-23T16:38:08;8.10;99.90
31046;DHT22;17711;54.018;9.300;2023-02-23T16:40:57;8.10;99.90
31046;DHT22;17711;54.018;9.300;2023-02-23T16:43:47;8.10;99.90
31046;DHT22;17711;54.018;9.300;2023-02-23T16:46:55;8.00;99.90
31046;DHT22;17711;54.018;9.300;2023-02-23T16:49:43;8.00;99.90
31046;DHT22;17711;54.018;9.300;2023-02-23T16:52:31;7.90;99.90
31046;DHT22;17711;54.018;9.300;2023-02-23T16:55:22;7.80;99.90
31046;DHT22;17711;54.018;9.300;2023-02-23T16:58:16;7.70;99.90
31046;DHT22;17711;54.018;9.300;2023-02-23T17:01:04;7.60;99.90
31046;DHT22;17711;54.018;9.300;2023-02-23T17:03:51;7.40;99.90
31046;DHT22;17711;54.018;9.300;2023-02-23T17:06:39;7.30;99.90
31046;DHT22;17711;54.018;9.300;2023-02-23T17:09:28;7.20;99.90
31046;DHT22;17711;54.018;9.300;2023-02-23T17:12:17;7.10;99.90
31046;DHT22;17711;54.018;9.300;2023-02-23T17:15:14;7.00;99.90
31046;DHT22;17711;54.018;9.300;2023-02-23T17:18:03;6.90;99.90
31046;DHT22;17711;54.018;9.300;2023-02-23T17:20:51;6.80;99.90
31046;DHT22;17711;54.018;9.300;2023-02-23T17:23:40;6.70;99.90
31046;DHT22;17711;54.018;9.300;2023-02-23T17:26:33;6.70;99.90
31046;DHT22;17711;54.018;9.300;2023-02-23T17:29:21;6.70;99.90
31046;DHT22;17711;54.018;9.300;2023-02-23T17:32:09;6.60;99.90
31046;DHT22;17711;54.018;9.300;2023-02-23T17:34:57;6.60;99.90
31046;DHT22;17711;54.018;9.300;2023-02-23T17:37:48;6.50;99.90
31046;DHT22;17711;54.018;9.300;2023-02-23T17:40:35;6.50;99.90
31046;DHT22;17711;54.018;9.300;2023-02-23T17:43:23;6.50;99.90
31046;DHT22;17711;54.018;9.300;2023-02-23T17:46:12;6.50;99.90
31046;DHT22;17711;54.018;9.300;2023-02-23T17:49:00;6.50;99.90
31046;DHT22;17711;54.018;9.300;2023-02-23T17:51:48;6.60;99.90
31046;DHT22;17711;54.018;9.300;2023-02-23T17:54:36;6.60;99.90
31046;DHT22;17711;54.018;9.300;2023-02-23T17:57:25;6.70;99.90
31046;DHT22;17711;54.018;9.300;2023-02-23T18:00:15;6.70;99.90
31046;DHT22;17711;54.018;9.300;2023-02-23T18:03:05;6.70;99.90
31046;DHT22;17711;54.018;9.300;2023-02-23T18:05:58;6.80;99.90
31046;DHT22;17711;54.018;9.300;2023-02-23T18:08:46;6.80;99.90
31046;DHT22;17711;54.018;9.300;2023-02-23T18:11:34;6.70;99.90
31046;DHT22;17711;54.018;9.300;2023-02-23T18:14:23;6.60;99.90
31046;DHT22;17711;54.018;9.300;2023-02-23T18:17:12;6.50;99.90
31046;DHT22;17711;54.018;9.300;2023-02-23T18:20:03;6.40;99.90
31046;DHT22;17711;54.018;9.300;2023-02-23T18:22:51;6.30;99.90
31046;DHT22;17711;54.018;9.300;2023-02-23T18:25:39;6.30;99.90
31046;DHT22;17711;54.018;9.300;2023-02-23T18:28:29;6.30;99.90
31046;DHT22;17711;54.018;9.300;2023-02-23T18:31:19;6.20;99.90
31046;DHT22;17711;54.018;9.300;2023-02-23T18:34:08;6.20;99.90
31046;DHT22;17711;54.018;9.300;2023-02-23T18:37:00;6.20;99.90
31046;DHT22;17711;54.018;9.300;2023-02-23T18:39:52;6.20;99.90
31046;DHT22;17711;54.018;9.300;2023-02-23T18:42:41;6.10;99.90